createdAt,value
2016-11-29T00:00:47.721Z,0
2016-11-29T00:01:47.672Z,0
2016-11-29T00:02:47.943Z,0
2016-11-29T00:03:47.892Z,0
2016-11-29T00:04:47.545Z,0
2016-11-29T00:05:47.806Z,0
2016-11-29T00:06:47.452Z,0
2016-11-29T00:07:47.106Z,0
2016-11-29T00:08:47.400Z,0
2016-11-29T00:09:47.620Z,0
2016-11-29T00:10:47.276Z,0
2016-11-29T00:11:47.539Z,0
2016-11-29T00:12:47.188Z,0
2016-11-29T00:13:47.446Z,0
2016-11-29T00:14:47.410Z,0
2016-11-29T00:15:47.059Z,0
2016-11-29T00:16:47.017Z,0
2016-11-29T00:17:46.672Z,0
2016-11-29T00:18:46.622Z,0
2016-11-29T00:19:46.280Z,0
2016-11-29T00:20:47.141Z,0
2016-11-29T00:21:46.806Z,0
2016-11-29T00:22:47.052Z,0
2016-11-29T00:23:46.707Z,0
2016-11-29T00:24:46.996Z,0
2016-11-29T00:25:46.320Z,0
2016-11-29T00:26:46.878Z,0
2016-11-29T00:27:46.532Z,0
2016-11-29T00:28:46.488Z,0
2016-11-29T00:29:46.473Z,0
2016-11-29T00:30:46.703Z,0
2016-11-29T00:31:46.045Z,0
2016-11-29T00:32:46.608Z,0
2016-11-29T00:33:45.661Z,0
2016-11-29T00:34:46.222Z,0
2016-11-29T00:35:46.190Z,0
2016-11-29T00:36:46.431Z,0
2016-11-29T00:37:46.087Z,0
2016-11-29T00:38:46.039Z,0
2016-11-29T00:39:45.997Z,0
2016-11-29T00:40:45.954Z,0
2016-11-29T00:41:45.642Z,0
2016-11-29T00:42:45.871Z,0
2016-11-29T00:43:45.825Z,0
2016-11-29T00:44:45.779Z,0
2016-11-29T00:45:46.036Z,0
2016-11-29T00:46:45.992Z,0
2016-11-29T00:47:45.945Z,0
2016-11-29T00:48:45.910Z,0
2016-11-29T00:49:45.558Z,0
2016-11-29T00:50:45.818Z,0
2016-11-29T00:51:45.175Z,0
2016-11-29T00:52:45.732Z,0
2016-11-29T00:53:45.684Z,0
2016-11-29T00:54:45.337Z,0
2016-11-29T00:55:45.295Z,0
2016-11-29T00:56:44.950Z,0
2016-11-29T00:57:45.217Z,0
2016-11-29T00:58:45.166Z,0
2016-11-29T00:59:45.143Z,0
2016-11-29T01:00:45.066Z,0
2016-11-29T01:01:45.030Z,0
2016-11-29T01:02:44.675Z,0
2016-11-29T01:03:44.344Z,0
2016-11-29T01:04:44.891Z,0
2016-11-29T01:05:45.155Z,0
2016-11-29T01:06:45.110Z,0
2016-11-29T01:07:45.065Z,0
2016-11-29T01:08:44.719Z,0
2016-11-29T01:09:44.370Z,0
2016-11-29T01:10:44.632Z,0
2016-11-29T01:11:44.889Z,0
2016-11-29T01:12:44.874Z,0
2016-11-29T01:13:44.194Z,0
2016-11-29T01:14:44.454Z,0
2016-11-29T01:15:44.414Z,0
2016-11-29T01:16:44.064Z,0
2016-11-29T01:17:44.631Z,0
2016-11-29T01:18:43.973Z,0
2016-11-29T01:19:44.544Z,0
2016-11-29T01:20:44.195Z,0
2016-11-29T01:21:44.450Z,0
2016-11-29T01:22:44.101Z,0
2016-11-29T01:23:44.360Z,0
2016-11-29T01:24:44.017Z,0
2016-11-29T01:25:44.275Z,0
2016-11-29T01:26:44.221Z,0
2016-11-29T01:27:44.189Z,0
2016-11-29T01:28:43.532Z,0
2016-11-29T01:29:43.184Z,0
2016-11-29T01:30:44.076Z,0
2016-11-29T01:31:43.705Z,0
2016-11-29T01:32:43.655Z,0
2016-11-29T01:33:43.338Z,0
2016-11-29T01:34:43.575Z,0
2016-11-29T01:35:43.230Z,0
2016-11-29T01:36:43.479Z,0
2016-11-29T01:37:43.736Z,0
2016-11-29T01:38:43.398Z,0
2016-11-29T01:39:43.353Z,0
2016-11-29T01:40:43.606Z,0
2016-11-29T01:41:43.261Z,0
2016-11-29T01:42:42.612Z,0
2016-11-29T01:43:42.874Z,0
2016-11-29T01:44:43.427Z,0
2016-11-29T01:45:43.085Z,0
2016-11-29T01:46:43.343Z,0
2016-11-29T01:47:42.700Z,0
2016-11-29T01:48:42.651Z,0
2016-11-29T01:49:43.205Z,0
2016-11-29T01:50:43.163Z,0
2016-11-29T01:51:43.119Z,0
2016-11-29T01:52:42.770Z,0
2016-11-29T01:53:43.031Z,0
2016-11-29T01:54:42.691Z,0
2016-11-29T01:55:42.033Z,0
2016-11-29T01:56:42.902Z,0
2016-11-29T01:57:42.562Z,0
2016-11-29T01:58:42.545Z,0
2016-11-29T01:59:42.768Z,0
2016-11-29T02:00:42.423Z,0
2016-11-29T02:01:42.072Z,0
2016-11-29T02:02:42.034Z,0
2016-11-29T02:03:42.287Z,0
2016-11-29T02:04:42.247Z,0
2016-11-29T02:05:42.230Z,0
2016-11-29T02:06:41.251Z,0
2016-11-29T02:07:42.411Z,0
2016-11-29T02:08:42.367Z,0
2016-11-29T02:09:42.331Z,0
2016-11-29T02:10:41.973Z,0
2016-11-29T02:11:42.252Z,0
2016-11-29T02:12:42.199Z,0
2016-11-29T02:13:42.144Z,0
2016-11-29T02:14:41.803Z,0
2016-11-29T02:15:41.761Z,0
2016-11-29T02:16:42.017Z,0
2016-11-29T02:17:41.670Z,0
2016-11-29T02:18:41.632Z,0
2016-11-29T02:19:41.584Z,0
2016-11-29T02:20:41.841Z,0
2016-11-29T02:21:41.494Z,0
2016-11-29T02:22:41.751Z,0
2016-11-29T02:23:41.707Z,0
2016-11-29T02:24:40.757Z,0
2016-11-29T02:25:41.337Z,0
2016-11-29T02:26:41.272Z,0
2016-11-29T02:27:41.528Z,0
2016-11-29T02:28:40.899Z,0
2016-11-29T02:29:41.433Z,0
2016-11-29T02:30:41.094Z,0
2016-11-29T02:31:41.061Z,0
2016-11-29T02:32:41.308Z,0
2016-11-29T02:33:40.666Z,0
2016-11-29T02:34:40.618Z,0
2016-11-29T02:35:41.179Z,0
2016-11-29T02:36:41.126Z,0
2016-11-29T02:37:40.781Z,0
2016-11-29T02:38:40.438Z,0
2016-11-29T02:39:40.690Z,0
2016-11-29T02:40:40.681Z,0
2016-11-29T02:41:40.634Z,0
2016-11-29T02:42:40.867Z,0
2016-11-29T02:43:40.822Z,0
2016-11-29T02:44:40.810Z,0
2016-11-29T02:45:40.134Z,0
2016-11-29T02:46:40.082Z,0
2016-11-29T02:47:40.348Z,0
2016-11-29T02:48:39.989Z,0
2016-11-29T02:49:40.554Z,0
2016-11-29T02:50:40.509Z,0
2016-11-29T02:51:39.862Z,0
2016-11-29T02:52:40.417Z,0
2016-11-29T02:53:40.376Z,0
2016-11-29T02:54:39.728Z,0
2016-11-29T02:55:40.289Z,0
2016-11-29T02:56:40.251Z,0
2016-11-29T02:57:39.900Z,0
2016-11-29T02:58:40.160Z,0
2016-11-29T02:59:39.806Z,0
2016-11-29T03:00:40.064Z,0
2016-11-29T03:01:40.020Z,0
2016-11-29T03:02:39.675Z,0
2016-11-29T03:03:39.931Z,0
2016-11-29T03:04:39.590Z,0
2016-11-29T03:05:38.938Z,0
2016-11-29T03:06:39.201Z,0
2016-11-29T03:07:39.454Z,0
2016-11-29T03:08:39.417Z,0
2016-11-29T03:09:38.759Z,0
2016-11-29T03:10:39.624Z,0
2016-11-29T03:11:39.279Z,0
2016-11-29T03:12:39.236Z,0
2016-11-29T03:13:38.889Z,0
2016-11-29T03:14:39.141Z,0
2016-11-29T03:15:39.096Z,0
2016-11-29T03:16:39.066Z,0
2016-11-29T03:17:39.317Z,0
2016-11-29T03:18:38.968Z,0
2016-11-29T03:19:38.929Z,0
2016-11-29T03:20:39.184Z,0
2016-11-29T03:21:39.133Z,0
2016-11-29T03:22:38.485Z,0
2016-11-29T03:23:38.745Z,0
2016-11-29T03:24:39.002Z,0
2016-11-29T03:25:38.665Z,0
2016-11-29T03:26:38.613Z,0
2016-11-29T03:27:38.871Z,0
2016-11-29T03:28:38.522Z,0
2016-11-29T03:29:38.481Z,0
2016-11-29T03:30:38.730Z,0
2016-11-29T03:31:38.695Z,0
2016-11-29T03:32:38.072Z,0
2016-11-29T03:33:38.305Z,0
2016-11-29T03:34:38.566Z,0
2016-11-29T03:35:38.210Z,0
2016-11-29T03:36:38.194Z,0
2016-11-29T03:37:37.826Z,0
2016-11-29T03:38:37.474Z,0
2016-11-29T03:39:37.735Z,0
2016-11-29T03:40:37.685Z,0
2016-11-29T03:41:37.344Z,0
2016-11-29T03:42:37.896Z,0
2016-11-29T03:43:37.566Z,0
2016-11-29T03:44:38.128Z,0
2016-11-29T03:45:37.776Z,0
2016-11-29T03:46:38.030Z,0
2016-11-29T03:47:37.983Z,0
2016-11-29T03:48:37.630Z,0
2016-11-29T03:49:37.900Z,0
2016-11-29T03:50:37.547Z,0
2016-11-29T03:51:37.199Z,0
2016-11-29T03:52:37.187Z,0
2016-11-29T03:53:37.719Z,0
2016-11-29T03:54:37.375Z,0
2016-11-29T03:55:37.032Z,0
2016-11-29T03:56:37.580Z,0
2016-11-29T03:57:37.246Z,0
2016-11-29T03:58:36.892Z,0
2016-11-29T03:59:37.448Z,0
2016-11-29T04:00:37.418Z,0
2016-11-29T04:01:37.061Z,0
2016-11-29T04:02:37.043Z,0
2016-11-29T04:03:37.279Z,0
2016-11-29T04:04:36.623Z,0
2016-11-29T04:05:37.182Z,0
2016-11-29T04:06:37.143Z,0
2016-11-29T04:07:37.100Z,0
2016-11-29T04:08:36.750Z,0
2016-11-29T04:09:37.016Z,0
2016-11-29T04:10:36.697Z,0
2016-11-29T04:11:36.617Z,0
2016-11-29T04:12:36.271Z,0
2016-11-29T04:13:36.834Z,0
2016-11-29T04:14:36.491Z,0
2016-11-29T04:15:36.445Z,0
2016-11-29T04:16:36.400Z,0
2016-11-29T04:17:36.098Z,0
2016-11-29T04:18:36.608Z,0
2016-11-29T04:19:36.571Z,0
2016-11-29T04:20:36.557Z,0
2016-11-29T04:21:36.174Z,0
2016-11-29T04:22:35.532Z,0
2016-11-29T04:23:36.395Z,0
2016-11-29T04:24:36.047Z,0
2016-11-29T04:25:35.698Z,0
2016-11-29T04:26:35.957Z,0
2016-11-29T04:27:35.618Z,0
2016-11-29T04:28:35.876Z,0
2016-11-29T04:29:35.823Z,0
2016-11-29T04:30:36.085Z,0
2016-11-29T04:31:35.740Z,0
2016-11-29T04:32:35.991Z,0
2016-11-29T04:33:35.343Z,0
2016-11-29T04:34:35.911Z,0
2016-11-29T04:35:35.265Z,0
2016-11-29T04:36:35.510Z,0
2016-11-29T04:37:35.805Z,0
2016-11-29T04:38:35.728Z,0
2016-11-29T04:39:35.386Z,0
2016-11-29T04:40:35.342Z,0
2016-11-29T04:41:34.692Z,0
2016-11-29T04:42:35.283Z,0
2016-11-29T04:43:34.902Z,0
2016-11-29T04:44:35.155Z,0
2016-11-29T04:45:35.413Z,0
2016-11-29T04:46:34.771Z,0
2016-11-29T04:47:35.061Z,0
2016-11-29T04:48:34.677Z,0
2016-11-29T04:49:34.943Z,0
2016-11-29T04:50:34.925Z,0
2016-11-29T04:51:34.852Z,0
2016-11-29T04:52:35.116Z,0
2016-11-29T04:53:34.762Z,0
2016-11-29T04:54:34.719Z,0
2016-11-29T04:55:34.676Z,0
2016-11-29T04:56:34.626Z,0
2016-11-29T04:57:34.585Z,0
2016-11-29T04:58:34.232Z,0
2016-11-29T04:59:33.892Z,0
2016-11-29T05:00:34.452Z,0
2016-11-29T05:01:34.414Z,0
2016-11-29T05:02:34.363Z,0
2016-11-29T05:03:33.711Z,0
2016-11-29T05:04:34.573Z,0
2016-11-29T05:05:34.226Z,0
2016-11-29T05:06:34.183Z,0
2016-11-29T05:07:34.439Z,0
2016-11-29T05:08:34.114Z,0
2016-11-29T05:09:34.088Z,0
2016-11-29T05:10:33.704Z,0
2016-11-29T05:11:34.266Z,0
2016-11-29T05:12:33.919Z,0
2016-11-29T05:13:33.875Z,0
2016-11-29T05:14:34.130Z,0
2016-11-29T05:15:33.789Z,0
2016-11-29T05:16:34.041Z,0
2016-11-29T05:17:33.705Z,0
2016-11-29T05:18:33.659Z,0
2016-11-29T05:19:33.909Z,0
2016-11-29T05:20:33.562Z,0
2016-11-29T05:21:33.526Z,0
2016-11-29T05:22:33.176Z,0
2016-11-29T05:23:33.126Z,0
2016-11-29T05:24:33.385Z,0
2016-11-29T05:25:33.355Z,0
2016-11-29T05:26:33.602Z,0
2016-11-29T05:27:33.255Z,0
2016-11-29T05:28:33.213Z,0
2016-11-29T05:29:32.867Z,0
2016-11-29T05:30:33.162Z,0
2016-11-29T05:31:33.084Z,0
2016-11-29T05:32:33.039Z,0
2016-11-29T05:33:33.296Z,0
2016-11-29T05:34:32.651Z,0
2016-11-29T05:35:32.906Z,0
2016-11-29T05:36:32.555Z,0
2016-11-29T05:37:32.821Z,0
2016-11-29T05:38:32.770Z,0
2016-11-29T05:39:33.030Z,0
2016-11-29T05:40:32.683Z,0
2016-11-29T05:41:32.942Z,0
2016-11-29T05:42:32.893Z,0
2016-11-29T05:43:32.244Z,0
2016-11-29T05:44:32.503Z,0
2016-11-29T05:45:32.757Z,0
2016-11-29T05:46:32.422Z,0
2016-11-29T05:47:32.676Z,0
2016-11-29T05:48:32.324Z,0
2016-11-29T05:49:31.979Z,0
2016-11-29T05:50:31.937Z,0
2016-11-29T05:51:32.196Z,0
2016-11-29T05:52:32.459Z,0
2016-11-29T05:53:31.798Z,0
2016-11-29T05:54:31.757Z,0
2016-11-29T05:55:32.316Z,0
2016-11-29T05:56:32.267Z,0
2016-11-29T05:57:32.232Z,0
2016-11-29T05:58:32.187Z,0
2016-11-29T05:59:31.837Z,0
2016-11-29T06:00:31.798Z,0
2016-11-29T06:01:32.054Z,0
2016-11-29T06:02:32.023Z,0
2016-11-29T06:03:31.964Z,0
2016-11-29T06:04:31.623Z,0
2016-11-29T06:05:31.576Z,0
2016-11-29T06:06:31.828Z,0
2016-11-29T06:07:31.181Z,0
2016-11-29T06:08:31.437Z,0
2016-11-29T06:09:31.702Z,0
2016-11-29T06:10:31.351Z,0
2016-11-29T06:11:31.296Z,0
2016-11-29T06:12:31.578Z,0
2016-11-29T06:13:31.521Z,0
2016-11-29T06:14:31.479Z,0
2016-11-29T06:15:31.434Z,0
2016-11-29T06:16:31.384Z,0
2016-11-29T06:17:31.344Z,0
2016-11-29T06:18:30.695Z,0
2016-11-29T06:19:31.254Z,0
2016-11-29T06:20:30.906Z,0
2016-11-29T06:21:30.563Z,0
2016-11-29T06:22:31.116Z,0
2016-11-29T06:23:30.771Z,0
2016-11-29T06:24:31.025Z,0
2016-11-29T06:25:30.683Z,0
2016-11-29T06:26:30.345Z,0
2016-11-29T06:27:30.592Z,0
2016-11-29T06:28:30.858Z,0
2016-11-29T06:29:29.914Z,0
2016-11-29T06:30:30.768Z,0
2016-11-29T06:31:30.420Z,0
2016-11-29T06:32:30.073Z,0
2016-11-29T06:33:30.331Z,0
2016-11-29T06:34:30.588Z,0
2016-11-29T06:35:30.247Z,0
2016-11-29T06:36:30.195Z,0
2016-11-29T06:37:30.153Z,5
2016-11-29T06:38:30.103Z,5
2016-11-29T06:39:30.371Z,5
2016-11-29T06:40:30.014Z,5
2016-11-29T06:41:30.279Z,5
2016-11-29T06:42:29.628Z,5
2016-11-29T06:43:29.584Z,5
2016-11-29T06:44:30.148Z,10
2016-11-29T06:45:30.095Z,10
2016-11-29T06:46:29.752Z,10
2016-11-29T06:47:29.713Z,10
2016-11-29T06:48:29.665Z,10
2016-11-29T06:49:29.315Z,15
2016-11-29T06:50:29.572Z,15
2016-11-29T06:51:29.226Z,15
2016-11-29T06:52:29.490Z,15
2016-11-29T06:53:29.746Z,20
2016-11-29T06:54:29.098Z,20
2016-11-29T06:55:29.653Z,20
2016-11-29T06:56:29.510Z,20
2016-11-29T06:57:29.569Z,25
2016-11-29T06:58:29.211Z,30
2016-11-29T06:59:29.173Z,45
2016-11-29T07:00:29.431Z,60
2016-11-29T07:01:29.391Z,75
2016-11-29T07:02:29.339Z,80
2016-11-29T07:03:29.293Z,90
2016-11-29T07:04:28.669Z,100
2016-11-29T07:05:29.212Z,110
2016-11-29T07:06:28.261Z,115
2016-11-29T07:07:29.148Z,130
2016-11-29T07:08:28.478Z,135
2016-11-29T07:09:28.731Z,145
2016-11-29T07:10:28.990Z,155
2016-11-29T07:11:28.948Z,165
2016-11-29T07:12:28.296Z,175
2016-11-29T07:13:28.555Z,180
2016-11-29T07:14:28.517Z,195
2016-11-29T07:15:28.771Z,205
2016-11-29T07:16:28.436Z,210
2016-11-29T07:17:28.082Z,220
2016-11-29T07:18:28.030Z,230
2016-11-29T07:19:28.300Z,240
2016-11-29T07:20:27.950Z,250
2016-11-29T07:21:28.522Z,260
2016-11-29T07:22:28.473Z,270
2016-11-29T07:23:27.531Z,275
2016-11-29T07:24:28.381Z,285
2016-11-29T07:25:28.042Z,290
2016-11-29T07:26:28.003Z,295
2016-11-29T07:27:27.961Z,300
2016-11-29T07:28:28.225Z,300
2016-11-29T07:29:28.188Z,305
2016-11-29T07:30:27.845Z,310
2016-11-29T07:31:27.798Z,320
2016-11-29T07:32:27.783Z,325
2016-11-29T07:33:28.027Z,325
2016-11-29T07:34:27.679Z,335
2016-11-29T07:35:27.944Z,345
2016-11-29T07:36:27.598Z,355
2016-11-29T07:37:27.901Z,370
2016-11-29T07:38:27.517Z,400
2016-11-29T07:39:27.770Z,410
2016-11-29T07:40:27.737Z,420
2016-11-29T07:41:27.092Z,400
2016-11-29T07:42:27.050Z,440
2016-11-29T07:43:27.318Z,450
2016-11-29T07:44:27.284Z,460
2016-11-29T07:45:27.229Z,470
2016-11-29T07:46:27.207Z,475
2016-11-29T07:47:26.558Z,485
2016-11-29T07:48:26.814Z,490
2016-11-29T07:49:27.089Z,500
2016-11-29T07:50:27.036Z,500
2016-11-29T07:51:26.998Z,505
2016-11-29T07:52:27.259Z,510
2016-11-29T07:53:26.927Z,515
2016-11-29T07:54:26.580Z,520
2016-11-29T07:55:27.152Z,530
2016-11-29T07:56:27.112Z,535
2016-11-29T07:57:26.769Z,540
2016-11-29T07:58:27.034Z,550
2016-11-29T07:59:27.004Z,550
2016-11-29T08:00:26.372Z,555
2016-11-29T08:01:26.923Z,560
2016-11-29T08:02:26.584Z,570
2016-11-29T08:03:26.549Z,575
2016-11-29T08:04:26.537Z,580
2016-11-29T08:05:26.170Z,585
2016-11-29T08:06:26.439Z,590
2016-11-29T08:07:26.718Z,595
2016-11-29T08:08:26.663Z,595
2016-11-29T08:09:26.621Z,605
2016-11-29T08:10:25.988Z,605
2016-11-29T08:11:26.250Z,615
2016-11-29T08:12:26.216Z,610
2016-11-29T08:13:26.207Z,615
2016-11-29T08:14:26.446Z,620
2016-11-29T08:15:26.405Z,630
2016-11-29T08:16:26.376Z,635
2016-11-29T08:17:26.333Z,640
2016-11-29T08:18:25.702Z,640
2016-11-29T08:19:25.666Z,645
2016-11-29T08:20:25.929Z,650
2016-11-29T08:21:25.888Z,660
2016-11-29T08:22:25.853Z,665
2016-11-29T08:23:25.513Z,665
2016-11-29T08:24:26.095Z,670
2016-11-29T08:25:25.748Z,670
2016-11-29T08:26:26.024Z,675
2016-11-29T08:27:25.405Z,680
2016-11-29T08:28:25.947Z,690
2016-11-29T08:29:25.609Z,695
2016-11-29T08:30:25.576Z,700
2016-11-29T08:31:25.845Z,690
2016-11-29T08:32:25.510Z,685
2016-11-29T08:33:25.468Z,690
2016-11-29T08:34:25.741Z,685
2016-11-29T08:35:25.710Z,690
2016-11-29T08:36:25.669Z,700
2016-11-29T08:37:25.633Z,705
2016-11-29T08:38:25.295Z,710
2016-11-29T08:39:25.265Z,720
2016-11-29T08:40:25.234Z,700
2016-11-29T08:41:25.504Z,705
2016-11-29T08:42:24.900Z,710
2016-11-29T08:43:25.129Z,715
2016-11-29T08:44:25.097Z,720
2016-11-29T08:45:25.060Z,715
2016-11-29T08:46:25.332Z,730
2016-11-29T08:47:25.294Z,740
2016-11-29T08:48:24.958Z,740
2016-11-29T08:49:24.619Z,755
2016-11-29T08:50:25.196Z,750
2016-11-29T08:51:25.156Z,760
2016-11-29T08:52:24.530Z,775
2016-11-29T08:53:24.792Z,780
2016-11-29T08:54:25.055Z,785
2016-11-29T08:55:25.025Z,785
2016-11-29T08:56:24.385Z,785
2016-11-29T08:57:24.654Z,790
2016-11-29T08:58:24.630Z,790
2016-11-29T08:59:24.897Z,800
2016-11-29T09:00:24.862Z,805
2016-11-29T09:01:24.521Z,805
2016-11-29T09:02:24.796Z,805
2016-11-29T09:03:24.760Z,810
2016-11-29T09:04:24.127Z,805
2016-11-29T09:05:24.392Z,810
2016-11-29T09:06:24.367Z,810
2016-11-29T09:07:24.324Z,820
2016-11-29T09:08:24.595Z,825
2016-11-29T09:09:24.570Z,825
2016-11-29T09:10:24.229Z,830
2016-11-29T09:11:24.540Z,845
2016-11-29T09:12:23.865Z,860
2016-11-29T09:13:24.436Z,890
2016-11-29T09:14:24.101Z,900
2016-11-29T09:15:24.375Z,895
2016-11-29T09:16:24.340Z,870
2016-11-29T09:17:23.399Z,865
2016-11-29T09:18:23.985Z,875
2016-11-29T09:19:23.951Z,875
2016-11-29T09:20:23.924Z,875
2016-11-29T09:21:23.892Z,870
2016-11-29T09:22:23.553Z,860
2016-11-29T09:23:23.824Z,845
2016-11-29T09:24:24.092Z,830
2016-11-29T09:25:24.057Z,815
2016-11-29T09:26:24.025Z,810
2016-11-29T09:27:23.389Z,805
2016-11-29T09:28:23.365Z,805
2016-11-29T09:29:23.631Z,810
2016-11-29T09:30:23.604Z,815
2016-11-29T09:31:23.874Z,830
2016-11-29T09:32:23.540Z,835
2016-11-29T09:33:23.806Z,830
2016-11-29T09:34:22.579Z,830
2016-11-29T09:35:23.743Z,830
2016-11-29T09:36:23.120Z,825
2016-11-29T09:37:23.380Z,825
2016-11-29T09:38:23.050Z,825
2016-11-29T09:39:23.321Z,830
2016-11-29T09:40:23.584Z,835
2016-11-29T09:41:23.260Z,835
2016-11-29T09:42:22.621Z,835
2016-11-29T09:43:23.188Z,845
2016-11-29T09:44:23.159Z,845
2016-11-29T09:45:23.437Z,825
2016-11-29T09:46:23.095Z,825
2016-11-29T09:47:23.367Z,820
2016-11-29T09:48:23.335Z,835
2016-11-29T09:49:22.403Z,835
2016-11-29T09:50:23.292Z,845
2016-11-29T09:51:22.945Z,850
2016-11-29T09:52:23.213Z,830
2016-11-29T09:53:23.182Z,795
2016-11-29T09:54:22.245Z,850
2016-11-29T09:55:22.846Z,865
2016-11-29T09:56:23.082Z,880
2016-11-29T09:57:22.759Z,895
2016-11-29T09:58:22.722Z,905
2016-11-29T09:59:22.687Z,925
2016-11-29T10:00:22.958Z,935
2016-11-29T10:01:22.633Z,945
2016-11-29T10:02:22.896Z,960
2016-11-29T10:03:22.874Z,980
2016-11-29T10:04:22.837Z,1005
2016-11-29T10:05:22.805Z,1055
2016-11-29T10:06:22.472Z,1110
2016-11-29T10:07:22.437Z,1205
2016-11-29T10:08:22.406Z,1360
2016-11-29T10:09:22.682Z,1475
2016-11-29T10:10:22.046Z,1495
2016-11-29T10:11:22.309Z,1555
2016-11-29T10:12:22.290Z,1595
2016-11-29T10:13:22.555Z,1650
2016-11-29T10:14:22.517Z,1665
2016-11-29T10:15:22.184Z,1575
2016-11-29T10:16:22.168Z,1640
2016-11-29T10:17:22.126Z,1635
2016-11-29T10:18:22.093Z,1595
2016-11-29T10:19:22.365Z,1530
2016-11-29T10:20:22.329Z,1515
2016-11-29T10:21:22.300Z,1490
2016-11-29T10:22:21.663Z,1455
2016-11-29T10:23:21.626Z,1435
2016-11-29T10:24:22.204Z,1320
2016-11-29T10:25:21.568Z,945
2016-11-29T10:26:21.837Z,720
2016-11-29T10:27:21.515Z,685
2016-11-29T10:28:22.078Z,675
2016-11-29T10:29:21.458Z,665
2016-11-29T10:30:22.013Z,660
2016-11-29T10:31:21.669Z,660
2016-11-29T10:32:21.343Z,660
2016-11-29T10:33:21.617Z,655
2016-11-29T10:34:20.972Z,650
2016-11-29T10:35:21.847Z,650
2016-11-29T10:36:21.806Z,650
2016-11-29T10:37:20.886Z,645
2016-11-29T10:38:21.761Z,640
2016-11-29T10:39:21.713Z,640
2016-11-29T10:40:21.679Z,640
2016-11-29T10:41:21.350Z,640
2016-11-29T10:42:21.013Z,645
2016-11-29T10:43:21.283Z,650
2016-11-29T10:44:20.946Z,650
2016-11-29T10:45:21.523Z,655
2016-11-29T10:46:21.187Z,660
2016-11-29T10:47:21.151Z,665
2016-11-29T10:48:21.118Z,665
2016-11-29T10:49:21.087Z,695
2016-11-29T10:50:21.053Z,1030
2016-11-29T10:51:21.322Z,1385
2016-11-29T10:52:20.989Z,1410
2016-11-29T10:53:21.288Z,1405
2016-11-29T10:54:20.616Z,1410
2016-11-29T10:55:20.887Z,1460
2016-11-29T10:56:21.157Z,1485
2016-11-29T10:57:20.516Z,1460
2016-11-29T10:58:20.802Z,1470
2016-11-29T10:59:20.759Z,1450
2016-11-29T11:00:20.725Z,1420
2016-11-29T11:01:20.693Z,1465
2016-11-29T11:02:20.658Z,1470
2016-11-29T11:03:20.940Z,1345
2016-11-29T11:04:20.592Z,905
2016-11-29T11:05:20.561Z,550
2016-11-29T11:06:20.522Z,510
2016-11-29T11:07:20.792Z,505
2016-11-29T11:08:20.453Z,505
2016-11-29T11:09:20.123Z,505
2016-11-29T11:10:20.692Z,505
2016-11-29T11:11:20.360Z,505
2016-11-29T11:12:20.323Z,510
2016-11-29T11:13:20.289Z,505
2016-11-29T11:14:20.250Z,485
2016-11-29T11:15:19.917Z,455
2016-11-29T11:16:20.491Z,435
2016-11-29T11:17:20.148Z,405
2016-11-29T11:18:20.115Z,400
2016-11-29T11:19:20.082Z,450
2016-11-29T11:20:20.344Z,570
2016-11-29T11:21:20.312Z,545
2016-11-29T11:22:19.967Z,705
2016-11-29T11:23:19.930Z,1210
2016-11-29T11:24:19.598Z,1350
2016-11-29T11:25:19.861Z,1170
2016-11-29T11:26:19.833Z,640
2016-11-29T11:27:20.091Z,475
2016-11-29T11:28:19.450Z,410
2016-11-29T11:29:20.017Z,305
2016-11-29T11:30:19.373Z,285
2016-11-29T11:31:19.336Z,275
2016-11-29T11:32:19.908Z,260
2016-11-29T11:33:19.863Z,250
2016-11-29T11:34:19.236Z,240
2016-11-29T11:35:19.791Z,240
2016-11-29T11:36:19.466Z,225
2016-11-29T11:37:19.427Z,225
2016-11-29T11:38:19.683Z,220
2016-11-29T11:39:19.636Z,215
2016-11-29T11:40:19.605Z,210
2016-11-29T11:41:19.263Z,210
2016-11-29T11:42:19.531Z,210
2016-11-29T11:43:19.186Z,205
2016-11-29T11:44:18.842Z,210
2016-11-29T11:45:19.418Z,200
2016-11-29T11:46:18.767Z,200
2016-11-29T11:47:19.335Z,195
2016-11-29T11:48:19.007Z,195
2016-11-29T11:49:18.952Z,190
2016-11-29T11:50:19.213Z,190
2016-11-29T11:51:18.569Z,185
2016-11-29T11:52:18.843Z,185
2016-11-29T11:53:19.093Z,185
2016-11-29T11:54:19.054Z,180
2016-11-29T11:55:19.013Z,180
2016-11-29T11:56:18.399Z,175
2016-11-29T11:57:18.336Z,170
2016-11-29T11:58:18.900Z,170
2016-11-29T11:59:18.857Z,165
2016-11-29T12:00:18.526Z,160
2016-11-29T12:01:18.810Z,160
2016-11-29T12:02:18.739Z,150
2016-11-29T12:03:18.693Z,150
2016-11-29T12:04:18.363Z,145
2016-11-29T12:05:18.315Z,145
2016-11-29T12:06:18.581Z,145
2016-11-29T12:07:18.244Z,145
2016-11-29T12:08:18.492Z,145
2016-11-29T12:09:18.464Z,140
2016-11-29T12:10:18.117Z,140
2016-11-29T12:11:18.373Z,140
2016-11-29T12:12:18.029Z,140
2016-11-29T12:13:18.296Z,140
2016-11-29T12:14:18.251Z,140
2016-11-29T12:15:17.910Z,135
2016-11-29T12:16:18.170Z,140
2016-11-29T12:17:18.133Z,135
2016-11-29T12:18:18.092Z,135
2016-11-29T12:19:17.753Z,135
2016-11-29T12:20:16.800Z,135
2016-11-29T12:21:17.367Z,130
2016-11-29T12:22:17.931Z,130
2016-11-29T12:23:17.016Z,130
2016-11-29T12:24:17.242Z,130
2016-11-29T12:25:17.803Z,130
2016-11-29T12:26:17.762Z,130
2016-11-29T12:27:17.414Z,125
2016-11-29T12:28:17.378Z,125
2016-11-29T12:29:17.640Z,125
2016-11-29T12:30:17.001Z,125
2016-11-29T12:31:16.961Z,125
2016-11-29T12:32:17.222Z,125
2016-11-29T12:33:17.477Z,125
2016-11-29T12:34:16.837Z,125
2016-11-29T12:35:17.093Z,125
2016-11-29T12:36:17.360Z,125
2016-11-29T12:37:17.315Z,120
2016-11-29T12:38:16.983Z,120
2016-11-29T12:39:16.929Z,120
2016-11-29T12:40:17.189Z,120
2016-11-29T12:41:16.541Z,120
2016-11-29T12:42:16.801Z,120
2016-11-29T12:43:16.765Z,120
2016-11-29T12:44:16.422Z,120
2016-11-29T12:45:16.381Z,120
2016-11-29T12:46:16.948Z,120
2016-11-29T12:47:16.908Z,120
2016-11-29T12:48:16.558Z,120
2016-11-29T12:49:16.817Z,120
2016-11-29T12:50:16.479Z,120
2016-11-29T12:51:16.431Z,115
2016-11-29T12:52:16.397Z,115
2016-11-29T12:53:16.661Z,115
2016-11-29T12:54:16.308Z,115
2016-11-29T12:55:15.964Z,115
2016-11-29T12:56:16.535Z,115
2016-11-29T12:57:16.192Z,115
2016-11-29T12:58:16.146Z,115
2016-11-29T12:59:16.414Z,115
2016-11-29T13:00:16.059Z,115
2016-11-29T13:01:16.028Z,115
2016-11-29T13:02:16.283Z,115
2016-11-29T13:03:15.941Z,110
2016-11-29T13:04:15.899Z,110
2016-11-29T13:05:15.861Z,110
2016-11-29T13:06:16.125Z,110
2016-11-29T13:07:15.479Z,110
2016-11-29T13:08:16.035Z,110
2016-11-29T13:09:15.690Z,110
2016-11-29T13:10:15.956Z,110
2016-11-29T13:11:15.311Z,110
2016-11-29T13:12:15.872Z,110
2016-11-29T13:13:15.574Z,110
2016-11-29T13:14:15.184Z,110
2016-11-29T13:15:15.751Z,105
2016-11-29T13:16:15.433Z,105
2016-11-29T13:17:15.364Z,105
2016-11-29T13:18:15.328Z,105
2016-11-29T13:19:15.287Z,105
2016-11-29T13:20:15.535Z,105
2016-11-29T13:21:14.900Z,105
2016-11-29T13:22:14.859Z,105
2016-11-29T13:23:15.415Z,105
2016-11-29T13:24:15.376Z,105
2016-11-29T13:25:15.332Z,105
2016-11-29T13:26:14.697Z,105
2016-11-29T13:27:14.951Z,100
2016-11-29T13:28:15.213Z,100
2016-11-29T13:29:15.170Z,100
2016-11-29T13:30:14.526Z,100
2016-11-29T13:31:14.785Z,100
2016-11-29T13:32:15.050Z,100
2016-11-29T13:33:14.397Z,100
2016-11-29T13:34:14.656Z,100
2016-11-29T13:35:14.943Z,100
2016-11-29T13:36:14.581Z,100
2016-11-29T13:37:14.841Z,95
2016-11-29T13:38:13.893Z,95
2016-11-29T13:39:14.757Z,95
2016-11-29T13:40:14.112Z,95
2016-11-29T13:41:14.683Z,95
2016-11-29T13:42:14.335Z,95
2016-11-29T13:43:14.589Z,95
2016-11-29T13:44:14.249Z,95
2016-11-29T13:45:14.205Z,95
2016-11-29T13:46:14.463Z,95
2016-11-29T13:47:13.822Z,90
2016-11-29T13:48:14.390Z,90
2016-11-29T13:49:14.354Z,90
2016-11-29T13:50:14.019Z,90
2016-11-29T13:51:13.955Z,90
2016-11-29T13:52:13.917Z,90
2016-11-29T13:53:14.181Z,90
2016-11-29T13:54:13.835Z,90
2016-11-29T13:55:13.486Z,90
2016-11-29T13:56:14.067Z,90
2016-11-29T13:57:13.749Z,85
2016-11-29T13:58:13.673Z,85
2016-11-29T13:59:13.928Z,85
2016-11-29T14:00:13.593Z,85
2016-11-29T14:01:13.547Z,85
2016-11-29T14:02:13.806Z,85
2016-11-29T14:03:13.460Z,85
2016-11-29T14:04:13.120Z,85
2016-11-29T14:05:12.775Z,85
2016-11-29T14:06:13.352Z,85
2016-11-29T14:07:12.994Z,85
2016-11-29T14:08:13.555Z,85
2016-11-29T14:09:12.609Z,85
2016-11-29T14:10:13.183Z,85
2016-11-29T14:11:13.433Z,85
2016-11-29T14:12:13.392Z,80
2016-11-29T14:13:12.748Z,80
2016-11-29T14:14:13.007Z,80